Time;durP1;ratioP1;P1;durP2;ratioP2;P2;SDS_P1;SDS_P2;PMS_P1;PMS_P2;Temp;Humidity;BMP_temperature;BMP_pressure;BME280_temperature;BME280_humidity;BME280_pressure;Samples;Min_cycle;Max_cycle;Signal;HPM_P1;HPM_P2
2021/12/14 00:00:20;;;;;;;47.90;21.27;;;2.60;99.90;1.50;101103;;;;567354;249;24104;-81
2021/12/14 00:02:48;;;;;;;46.93;21.17;;;2.60;99.90;1.50;101110;;;;576137;245;24165;-81
2021/12/14 00:05:19;;;;;;;57.67;21.60;;;2.60;99.90;1.50;101091;;;;575940;245;24113;-81
2021/12/14 00:07:44;;;;;;;54.27;23.37;;;2.60;99.90;1.50;101081;;;;575520;245;24110;-81
2021/12/14 00:10:29;;;;;;;49.07;21.90;;;2.50;99.90;1.50;101092;;;;586517;241;24039;-80
2021/12/14 00:12:56;;;;;;;56.83;23.13;;;2.50;99.90;1.50;101081;;;;577097;243;24055;-80
2021/12/14 00:15:10;;;;;;;57.33;22.80;;;2.60;99.90;1.50;101081;;;;585301;244;24074;-80
2021/12/14 00:17:41;;;;;;;54.87;22.73;;;2.50;99.90;1.40;101082;;;;577239;244;24150;-79
2021/12/14 00:20:33;;;;;;;48.53;23.10;;;2.50;99.90;1.40;101084;;;;567333;249;24151;-82
2021/12/14 00:25:29;;;;;;;52.13;22.27;;;2.50;99.90;1.40;101091;;;;573931;244;24107;-80
2021/12/14 00:27:57;;;;;;;56.07;22.37;;;2.50;99.90;1.50;101096;;;;566886;249;24121;-80
2021/12/14 00:30:29;;;;;;;53.43;22.67;;;2.50;99.90;1.50;101081;;;;577288;244;24141;-80
2021/12/14 00:32:56;;;;;;;59.77;22.67;;;2.60;99.90;1.50;101096;;;;576506;244;24066;-80
2021/12/14 00:35:21;;;;;;;53.30;22.30;;;2.60;99.90;1.50;101094;;;;566635;249;24129;-81
2021/12/14 00:37:50;;;;;;;52.27;22.07;;;2.60;99.90;1.60;101090;;;;567087;249;25167;-80
2021/12/14 00:40:20;;;;;;;47.53;21.43;;;2.60;99.90;1.50;101077;;;;577243;244;24170;-79
2021/12/14 00:42:48;;;;;;;49.30;21.20;;;2.60;99.90;1.60;101085;;;;566896;249;24082;-80
2021/12/14 00:45:16;;;;;;;51.53;21.73;;;2.60;99.90;1.50;101076;;;;586155;244;24079;-80
2021/12/14 00:47:47;;;;;;;49.93;20.93;;;2.60;99.90;1.60;101074;;;;577396;244;24181;-79
2021/12/14 00:50:14;;;;;;;46.33;20.30;;;2.60;99.90;1.50;101064;;;;578327;244;24089;-79
2021/12/14 00:52:42;;;;;;;41.27;19.47;;;2.60;99.90;1.50;101074;;;;578069;244;24059;-80
2021/12/14 00:55:08;;;;;;;50.90;19.03;;;2.60;99.90;1.50;101074;;;;578120;243;24115;-79
2021/12/14 00:57:37;;;;;;;48.40;19.10;;;2.60;99.90;1.50;101070;;;;577963;243;24100;-80
2021/12/14 01:00:11;;;;;;;44.70;18.30;;;2.60;99.90;1.50;101067;;;;577779;244;24076;-80
2021/12/14 01:02:36;;;;;;;46.40;19.23;;;2.60;99.90;1.50;101062;;;;576574;244;24078;-80
2021/12/14 01:05:04;;;;;;;51.33;20.53;;;2.60;99.90;1.50;101047;;;;577915;244;24087;-79
2021/12/14 01:07:32;;;;;;;51.07;20.40;;;2.60;99.90;1.50;101056;;;;577191;243;24077;-79
2021/12/14 01:10:00;;;;;;;39.43;18.53;;;2.60;99.90;1.60;101066;;;;577461;244;24098;-80
2021/12/14 01:12:50;;;;;;;43.03;18.67;;;2.60;99.90;1.60;101081;;;;577640;244;24046;-80
2021/12/14 01:15:42;;;;;;;42.40;18.20;;;2.70;99.90;1.60;101084;;;;566861;249;24089;-80
2021/12/14 01:18:16;;;;;;;47.10;18.27;;;2.70;99.90;1.70;101085;;;;577571;244;24084;-80
2021/12/14 01:20:37;;;;;;;35.63;16.83;;;2.70;99.90;1.70;101087;;;;576578;244;24061;-78
2021/12/14 01:23:02;;;;;;;40.87;17.57;;;2.80;99.90;1.70;101084;;;;577105;244;24053;-82
2021/12/14 01:25:30;;;;;;;33.17;16.30;;;2.80;99.90;1.80;101082;;;;577741;243;24097;-81
2021/12/14 01:28:04;;;;;;;43.83;15.93;;;2.80;99.90;1.80;101082;;;;577229;244;25093;-80
2021/12/14 01:30:41;;;;;;;33.67;16.80;;;2.80;99.90;1.80;101073;;;;586282;240;24087;-80
2021/12/14 01:33:05;;;;;;;34.87;15.40;;;2.90;99.90;1.80;101066;;;;566887;248;24085;-80
2021/12/14 01:35:33;;;;;;;35.57;14.67;;;2.90;99.90;1.80;101068;;;;566523;249;24172;-79
2021/12/14 01:38:05;;;;;;;25.27;12.20;;;2.90;99.90;1.90;101065;;;;577360;244;24093;-80
2021/12/14 01:43:15;;;;;;;20.40;10.40;;;2.90;99.90;1.90;101062;;;;566518;249;24155;-81
2021/12/14 01:45:46;;;;;;;22.10;9.73;;;3.00;99.90;2.00;101036;;;;577220;244;24110;-81
2021/12/14 01:48:13;;;;;;;24.60;11.43;;;3.10;99.90;2.00;101037;;;;566236;249;24099;-81
2021/12/14 01:50:41;;;;;;;17.77;9.57;;;3.00;99.90;2.00;101038;;;;575339;249;24157;-81
2021/12/14 01:53:13;;;;;;;16.90;10.17;;;3.10;99.90;2.00;101031;;;;586125;239;24054;-80
2021/12/14 01:55:37;;;;;;;18.93;9.97;;;3.10;99.90;2.00;101034;;;;576796;244;24126;-79
2021/12/14 01:58:06;;;;;;;21.13;9.97;;;3.00;99.90;2.00;101037;;;;567335;249;24097;-81
2021/12/14 02:00:34;;;;;;;20.80;9.33;;;3.00;99.90;1.90;101033;;;;577840;244;24065;-80
2021/12/14 02:03:02;;;;;;;18.00;8.67;;;3.00;99.90;2.00;101033;;;;577462;244;24106;-81
2021/12/14 02:05:36;;;;;;;14.20;8.10;;;3.00;99.90;2.00;101037;;;;568232;245;24111;-81
2021/12/14 02:08:04;;;;;;;20.03;9.47;;;3.10;99.90;2.10;101026;;;;586939;242;24073;-81
2021/12/14 02:10:32;;;;;;;17.67;8.97;;;3.10;99.90;2.10;101024;;;;558318;253;24160;-81
2021/12/14 02:13:00;;;;;;;15.63;9.47;;;3.20;99.90;2.20;101021;;;;576831;249;24157;-81
2021/12/14 02:15:28;;;;;;;17.50;10.43;;;3.20;99.90;2.20;101007;;;;565134;253;24183;-81
2021/12/14 02:17:57;;;;;;;18.17;9.17;;;3.20;99.90;2.20;101002;;;;575249;244;24120;-81
2021/12/14 02:20:27;;;;;;;18.67;9.33;;;3.20;99.90;2.10;100997;;;;557010;253;24221;-81
2021/12/14 02:22:55;;;;;;;16.00;9.03;;;3.20;99.90;2.10;100992;;;;565591;249;25193;-81
2021/12/14 02:25:23;;;;;;;15.13;8.87;;;3.20;99.90;2.20;100988;;;;557356;253;24149;-82
2021/12/14 02:27:54;;;;;;;16.10;9.07;;;3.20;99.90;2.20;100994;;;;578972;244;24218;-81
2021/12/14 02:30:19;;;;;;;15.13;8.50;;;3.20;99.90;2.20;100979;;;;579197;244;24128;-81
2021/12/14 02:32:47;;;;;;;17.80;9.37;;;3.30;99.90;2.30;100978;;;;576168;245;24092;-81
2021/12/14 02:35:15;;;;;;;15.30;8.23;;;3.30;99.90;2.30;100982;;;;568065;249;24165;-82
2021/12/14 02:37:51;;;;;;;14.43;7.83;;;3.30;99.90;2.30;100976;;;;567696;249;24112;-81
2021/12/14 02:40:31;;;;;;;19.60;8.97;;;3.40;99.90;2.40;100975;;;;567928;249;24154;-81
2021/12/14 02:42:50;;;;;;;18.10;9.77;;;3.40;99.90;2.40;100979;;;;567867;249;24144;-81
2021/12/14 02:45:20;;;;;;;16.83;8.90;;;3.40;99.90;2.40;100986;;;;567908;249;24147;-83
2021/12/14 02:47:53;;;;;;;16.17;9.47;;;3.40;99.90;2.40;100993;;;;567901;249;24124;-82
2021/12/14 02:50:18;;;;;;;17.50;8.03;;;3.40;99.90;2.40;100989;;;;567768;249;24120;-80
2021/12/14 02:52:45;;;;;;;18.17;9.47;;;3.40;99.90;2.40;100981;;;;568211;249;24125;-81
2021/12/14 02:55:16;;;;;;;14.17;8.63;;;3.40;99.90;2.40;100978;;;;568191;249;24151;-82
2021/12/14 02:57:44;;;;;;;17.30;9.80;;;3.40;99.90;2.40;100975;;;;567928;249;24131;-81
2021/12/14 03:00:12;;;;;;;24.87;15.27;;;3.50;99.90;2.50;100967;;;;562975;249;35554;-80
2021/12/14 03:02:40;;;;;;;17.97;11.27;;;3.50;99.90;2.50;100981;;;;567577;249;24143;-81
2021/12/14 03:05:08;;;;;;;23.00;10.47;;;3.50;99.90;2.50;100974;;;;576645;249;24124;-81
2021/12/14 03:07:38;;;;;;;18.90;9.90;;;3.60;99.90;2.60;100972;;;;567654;249;24148;-82
2021/12/14 03:10:19;;;;;;;12.73;8.80;;;3.60;99.90;2.60;100971;;;;567310;249;24189;-81
2021/12/14 03:12:37;;;;;;;19.03;10.10;;;3.60;99.90;2.60;100973;;;;568612;248;24221;-81
2021/12/14 03:15:11;;;;;;;19.43;10.50;;;3.60;99.90;2.60;100957;;;;568585;248;24117;-82
2021/12/14 03:17:43;;;;;;;25.77;16.03;;;3.60;99.90;2.60;100971;;;;562353;249;38542;-81
2021/12/14 03:20:08;;;;;;;25.67;16.58;;;3.70;99.90;2.70;100959;;;;563170;249;35609;-82
2021/12/14 03:22:55;;;;;;;24.80;13.03;;;3.70;99.90;2.70;100954;;;;568178;249;24219;-81
2021/12/14 03:25:27;;;;;;;18.37;11.37;;;3.70;99.90;2.70;100949;;;;568556;249;24159;-81
2021/12/14 03:27:54;;;;;;;24.13;12.30;;;3.70;99.90;2.70;100942;;;;567864;249;24113;-81
2021/12/14 03:30:30;;;;;;;24.73;11.80;;;3.70;99.90;2.70;100946;;;;568157;249;24140;-80
2021/12/14 03:32:58;;;;;;;21.70;10.70;;;3.70;99.90;2.70;100948;;;;567753;249;24153;-82
2021/12/14 03:35:35;;;;;;;19.77;9.83;;;3.70;99.90;2.70;100955;;;;567943;249;24145;-81
2021/12/14 03:38:11;;;;;;;16.23;11.13;;;3.70;99.90;2.70;100948;;;;567686;249;24128;-81
2021/12/14 03:40:40;;;;;;;19.63;10.57;;;3.70;99.90;2.70;100956;;;;567395;249;24177;-81
2021/12/14 03:43:11;;;;;;;21.13;11.10;;;3.70;99.90;2.70;100952;;;;576346;249;24186;-81
2021/12/14 03:45:40;;;;;;;23.70;11.80;;;3.70;99.90;2.70;100950;;;;576027;249;24127;-82
2021/12/14 03:48:07;;;;;;;23.50;12.37;;;3.80;99.90;2.80;100951;;;;567423;249;24124;-82
2021/12/14 03:50:35;;;;;;;24.33;11.27;;;3.80;99.90;2.80;100948;;;;567427;249;24218;-81
2021/12/14 03:53:06;;;;;;;20.70;11.47;;;3.80;99.90;2.80;100946;;;;567509;249;24105;-80
2021/12/14 03:55:34;;;;;;;19.47;10.50;;;3.80;99.90;2.80;100941;;;;566762;249;24181;-80
2021/12/14 03:58:03;;;;;;;17.43;10.63;;;3.80;99.90;2.80;100934;;;;567484;249;24224;-82
2021/12/14 04:00:31;;;;;;;23.03;11.57;;;3.90;99.90;2.80;100936;;;;567169;249;24144;-82
2021/12/14 04:02:59;;;;;;;20.67;10.57;;;3.80;99.90;2.80;100926;;;;567457;249;24121;-82
2021/12/14 04:05:27;;;;;;;28.63;12.13;;;3.90;99.90;2.90;100927;;;;567424;249;24154;-81
2021/12/14 04:07:55;;;;;;;25.70;12.40;;;3.90;99.90;2.80;100933;;;;576514;244;24178;-82
2021/12/14 04:10:23;;;;;;;26.40;13.27;;;3.90;99.90;2.80;100938;;;;573492;247;24130;-80
2021/12/14 04:12:51;;;;;;;31.00;13.13;;;3.90;99.90;2.90;100936;;;;585442;242;24137;-82
2021/12/14 04:15:22;;;;;;;31.97;12.67;;;3.90;99.90;2.90;100936;;;;579259;242;24121;-82
2021/12/14 04:17:49;;;;;;;28.60;12.73;;;3.90;99.90;2.90;100926;;;;594384;241;24114;-82
2021/12/14 04:20:29;;;;;;;23.10;11.93;;;3.90;99.90;2.90;100926;;;;577291;244;24098;-82
2021/12/14 04:22:57;;;;;;;33.80;19.05;;;3.90;99.90;2.80;100919;;;;581140;242;46024;-81
2021/12/14 04:25:25;;;;;;;29.90;15.00;;;3.90;99.90;2.80;100910;;;;579068;244;24057;-82
2021/12/14 04:27:53;;;;;;;25.63;13.93;;;3.90;99.90;2.90;100903;;;;567858;249;24116;-81
2021/12/14 04:30:22;;;;;;;26.00;14.47;;;3.90;99.90;2.90;100907;;;;576734;249;24136;-81
2021/12/14 04:32:50;;;;;;;27.97;14.17;;;3.90;99.90;2.90;100905;;;;578238;243;24051;-81
2021/12/14 04:35:17;;;;;;;23.30;13.10;;;3.90;99.90;2.90;100910;;;;566934;248;24143;-82
2021/12/14 04:37:54;;;;;;;26.07;13.37;;;4.00;99.90;3.00;100908;;;;586710;244;24092;-80
2021/12/14 04:40:36;;;;;;;26.10;13.43;;;3.90;99.90;3.00;100895;;;;577792;244;24057;-81
2021/12/14 04:53:56;;;;;;;31.23;19.35;;;4.00;99.90;2.90;100885;;;;572789;244;35414;-82
2021/12/14 04:56:27;;;;;;;27.40;14.03;;;3.90;99.90;2.90;100891;;;;577481;244;24104;-82
2021/12/14 04:59:03;;;;;;;22.43;12.87;;;4.00;99.90;2.90;100886;;;;567516;249;24132;-82
2021/12/14 05:01:34;;;;;;;25.73;11.90;;;4.00;99.90;2.90;100890;;;;580255;244;24061;-82
2021/12/14 05:04:03;;;;;;;24.50;13.57;;;3.90;99.90;2.90;100894;;;;586555;244;24117;-82
2021/12/14 05:06:45;;;;;;;19.93;11.00;;;3.90;99.90;2.90;100887;;;;577590;244;24096;-82
2021/12/14 05:09:25;;;;;;;22.43;11.70;;;3.90;99.90;2.90;100880;;;;566370;248;24100;-81
2021/12/14 05:11:56;;;;;;;23.20;11.33;;;3.90;99.90;2.90;100879;;;;577267;244;25127;-83
2021/12/14 05:14:27;;;;;;;25.30;11.20;;;3.90;99.90;2.90;100877;;;;575874;243;24086;-81
2021/12/14 05:16:58;;;;;;;19.03;11.67;;;3.90;99.90;2.90;100876;;;;575568;243;24113;-81
2021/12/14 05:19:26;;;;;;;18.63;11.33;;;3.90;99.90;2.90;100882;;;;577026;244;24057;-82
2021/12/14 05:21:54;;;;;;;25.87;11.20;;;3.90;99.90;2.90;100867;;;;577653;244;24085;-82
2021/12/14 05:24:23;;;;;;;22.90;11.43;;;3.90;99.90;3.00;100871;;;;567014;249;24150;-81
2021/12/14 05:26:50;;;;;;;27.10;11.93;;;4.00;99.90;3.00;100872;;;;577195;243;24123;-81
2021/12/14 05:29:18;;;;;;;20.90;11.03;;;4.00;99.90;3.00;100867;;;;566698;249;24082;-81
2021/12/14 05:31:47;;;;;;;23.07;11.53;;;4.00;99.90;3.00;100864;;;;577305;243;24104;-82
2021/12/14 05:34:14;;;;;;;29.37;18.10;;;4.00;99.90;3.00;100861;;;;562035;249;35320;-81
2021/12/14 05:36:42;;;;;;;24.93;13.20;;;4.00;99.90;3.00;100869;;;;577063;248;24082;-81
2021/12/14 05:39:40;;;;;;;22.60;12.07;;;4.00;99.90;3.00;100868;;;;567954;249;24091;-81
2021/12/14 05:44:39;;;;;;;22.47;11.47;;;4.00;99.90;3.00;100866;;;;577845;244;24050;-80
2021/12/14 05:47:09;;;;;;;20.33;11.60;;;4.10;99.90;3.00;100865;;;;577677;244;24055;-80
2021/12/14 05:49:34;;;;;;;23.23;11.90;;;4.00;99.90;3.00;100860;;;;567287;248;24099;-80
2021/12/14 05:52:03;;;;;;;20.77;11.13;;;4.10;99.90;3.10;100865;;;;577937;244;24069;-80
2021/12/14 05:54:35;;;;;;;18.20;11.20;;;4.10;99.90;3.10;100866;;;;566393;249;24136;-80
2021/12/14 05:57:00;;;;;;;16.20;9.83;;;4.10;99.90;3.10;100867;;;;577379;244;24177;-81
2021/12/14 05:59:28;;;;;;;15.50;10.10;;;4.10;99.90;3.10;100859;;;;567176;249;24144;-80
2021/12/14 06:01:56;;;;;;;15.97;8.93;;;4.10;99.90;3.10;100868;;;;576157;249;24165;-80
2021/12/14 06:04:36;;;;;;;18.47;10.67;;;4.10;99.90;3.10;100862;;;;569815;247;24185;-80
2021/12/14 06:07:05;;;;;;;16.33;8.60;;;4.10;99.90;3.00;100862;;;;567542;247;25161;-80
2021/12/14 06:09:33;;;;;;;16.07;9.80;;;4.00;99.90;3.00;100861;;;;571379;247;24145;-80
2021/12/14 06:12:01;;;;;;;18.53;9.43;;;4.00;99.90;3.00;100851;;;;571047;247;24139;-80
2021/12/14 06:14:29;;;;;;;18.10;10.13;;;4.10;99.90;3.00;100855;;;;571655;247;24148;-80
2021/12/14 06:17:00;;;;;;;18.17;9.30;;;4.10;99.90;3.00;100845;;;;573149;246;24076;-80
2021/12/14 06:19:34;;;;;;;15.67;9.00;;;4.10;99.90;3.00;100835;;;;586085;241;24119;-80
2021/12/14 06:22:11;;;;;;;13.70;8.57;;;4.10;99.90;3.00;100845;;;;595413;241;24076;-80
2021/12/14 06:24:39;;;;;;;15.13;9.00;;;4.10;99.90;3.10;100846;;;;606826;236;24006;-81
2021/12/14 06:27:07;;;;;;;14.13;9.07;;;4.10;99.90;3.00;100851;;;;597923;236;25071;-81
2021/12/14 06:29:44;;;;;;;16.00;8.47;;;4.10;99.90;3.10;100854;;;;585643;241;24111;-81
2021/12/14 06:32:12;;;;;;;15.47;8.67;;;4.10;99.90;3.00;100850;;;;579868;244;24136;-81
2021/12/14 06:34:44;;;;;;;17.17;9.70;;;4.10;99.90;3.00;100847;;;;584801;241;24089;-80
2021/12/14 06:37:29;;;;;;;15.90;8.87;;;4.00;99.90;3.10;100852;;;;585791;241;25225;-80
2021/12/14 06:39:54;;;;;;;14.60;9.37;;;4.10;99.90;3.10;100862;;;;585588;241;24078;-80
2021/12/14 06:42:23;;;;;;;19.03;9.83;;;4.10;99.90;3.10;100859;;;;583965;241;24075;-81
2021/12/14 06:44:51;;;;;;;17.13;10.77;;;4.10;99.90;3.10;100854;;;;590534;241;24095;-81
2021/12/14 06:47:19;;;;;;;16.27;9.40;;;4.10;99.90;3.10;100849;;;;587255;240;24056;-81
2021/12/14 06:49:50;;;;;;;19.97;10.57;;;4.10;99.90;3.10;100846;;;;595926;237;24058;-81
2021/12/14 06:52:15;;;;;;;18.97;8.80;;;4.10;99.90;3.10;100852;;;;599551;236;24065;-79
2021/12/14 06:54:44;;;;;;;19.83;10.40;;;4.20;99.90;3.10;100856;;;;599536;236;24035;-80
2021/12/14 06:57:11;;;;;;;22.40;10.93;;;4.10;99.90;3.10;100859;;;;574802;244;24203;-78
2021/12/14 06:59:39;;;;;;;22.77;11.50;;;4.10;99.90;3.10;100867;;;;590832;239;24122;-79
2021/12/14 07:02:08;;;;;;;23.50;11.73;;;4.10;99.90;3.10;100875;;;;594322;239;24055;-81
2021/12/14 07:04:35;;;;;;;21.27;11.97;;;4.10;99.90;3.10;100878;;;;599322;239;24085;-79
2021/12/14 07:07:06;;;;;;;24.77;12.17;;;4.10;99.90;3.10;100882;;;;586787;241;24057;-79
2021/12/14 07:09:42;;;;;;;25.90;11.80;;;4.10;99.90;3.10;100876;;;;577539;244;24143;-79
2021/12/14 07:12:19;;;;;;;28.07;13.07;;;4.10;99.90;3.10;100891;;;;586570;244;24143;-79
2021/12/14 07:14:50;;;;;;;26.37;13.43;;;4.10;99.90;3.10;100879;;;;575170;245;24119;-78
2021/12/14 07:17:21;;;;;;;24.03;12.13;;;4.10;99.90;3.10;100879;;;;567147;249;24171;-78
2021/12/14 07:19:58;;;;;;;23.47;12.67;;;4.10;99.90;3.10;100881;;;;574838;246;24126;-79
2021/12/14 07:22:27;;;;;;;23.37;11.47;;;4.10;99.90;3.20;100875;;;;574685;246;24095;-78
2021/12/14 07:25:05;;;;;;;20.43;12.30;;;4.10;99.90;3.20;100872;;;;571531;249;24244;-80
2021/12/14 07:27:45;;;;;;;28.40;12.77;;;4.20;99.90;3.20;100880;;;;592914;238;25156;-79
2021/12/14 07:30:34;;;;;;;27.10;13.57;;;4.20;99.90;3.20;100874;;;;576082;245;24191;-78
2021/12/14 07:33:14;;;;;;;25.33;11.97;;;4.20;99.90;3.30;100875;;;;576040;245;24109;-78
2021/12/14 07:36:09;;;;;;;24.37;13.20;;;4.20;99.90;3.30;100866;;;;584210;240;24095;-78
2021/12/14 07:38:52;;;;;;;25.97;12.30;;;4.30;99.90;3.30;100871;;;;583273;240;24070;-77
2021/12/14 07:41:32;;;;;;;23.30;11.60;;;4.30;99.90;3.40;100870;;;;578908;242;24102;-79
2021/12/14 07:44:17;;;;;;;26.07;12.63;;;4.30;99.90;3.40;100860;;;;574466;242;24102;-80
2021/12/14 07:46:57;;;;;;;27.10;13.10;;;4.40;99.90;3.40;100860;;;;583195;242;24098;-78
2021/12/14 07:49:43;;;;;;;31.90;13.00;;;4.40;99.90;3.40;100863;;;;583522;242;24145;-79
2021/12/14 07:52:17;;;;;;;32.23;13.03;;;4.40;99.90;3.40;100859;;;;580117;244;24079;-79
2021/12/14 07:54:51;;;;;;;28.67;14.73;;;4.40;99.90;3.50;100862;;;;580769;244;24080;-80
2021/12/14 07:57:23;;;;;;;28.03;13.37;;;4.40;99.90;3.50;100858;;;;583092;242;24101;-78
2021/12/14 07:59:51;;;;;;;31.50;14.80;;;4.50;99.90;3.50;100860;;;;584714;242;24120;-79
2021/12/14 08:02:34;;;;;;;25.53;12.67;;;4.40;99.90;3.60;100860;;;;580841;243;24079;-79
2021/12/14 08:05:04;;;;;;;23.17;12.20;;;4.50;99.90;3.60;100867;;;;581336;243;24091;-79
2021/12/14 08:07:35;;;;;;;22.33;12.07;;;4.60;99.90;3.70;100866;;;;580043;238;24036;-77
2021/12/14 08:10:07;;;;;;;20.27;11.73;;;4.60;99.90;3.70;100855;;;;579549;244;24115;-78
2021/12/14 08:12:43;;;;;;;23.97;12.30;;;4.70;99.90;3.80;100854;;;;567719;249;24120;-77
2021/12/14 08:15:29;;;;;;;22.17;12.07;;;4.70;99.90;3.90;100868;;;;567789;249;24121;-79
2021/12/14 08:17:58;;;;;;;21.40;11.33;;;4.90;99.90;4.00;100862;;;;567035;249;24168;-82
2021/12/14 08:20:26;;;;;;;21.60;11.37;;;4.90;99.90;4.10;100863;;;;567002;249;24168;-80
2021/12/14 08:22:53;;;;;;;24.27;12.40;;;5.00;99.90;4.20;100864;;;;567598;249;24166;-80
2021/12/14 08:25:24;;;;;;;19.37;11.30;;;5.10;99.90;4.20;100861;;;;567673;249;24108;-81
2021/12/14 08:28:02;;;;;;;28.80;14.03;;;5.20;99.90;4.30;100877;;;;567512;249;24143;-80
2021/12/14 08:30:30;;;;;;;19.27;11.70;;;5.20;99.90;4.40;100874;;;;576400;249;24112;-81
2021/12/14 08:33:01;;;;;;;21.97;11.17;;;5.30;99.90;4.40;100870;;;;584232;245;25172;-82
2021/12/14 08:35:26;;;;;;;17.33;10.13;;;5.40;99.90;4.40;100881;;;;574942;246;24093;-82
2021/12/14 08:37:57;;;;;;;15.43;9.10;;;5.40;99.90;4.40;100865;;;;583815;246;24090;-81
2021/12/14 08:40:31;;;;;;;20.93;10.60;;;5.50;99.90;4.40;100873;;;;567239;249;24106;-82
2021/12/14 08:43:10;;;;;;;16.37;10.13;;;5.40;99.90;4.40;100873;;;;577102;244;24136;-81
2021/12/14 08:45:36;;;;;;;16.57;10.33;;;5.40;99.90;4.40;100874;;;;577552;244;24081;-81
2021/12/14 08:48:07;;;;;;;16.00;9.33;;;5.40;99.90;4.40;100869;;;;577735;244;24122;-80
2021/12/14 08:50:41;;;;;;;17.37;8.97;;;5.40;99.90;4.40;100875;;;;577864;244;24094;-82
2021/12/14 08:53:09;;;;;;;18.17;10.37;;;5.40;99.90;4.40;100868;;;;577708;244;24084;-81
2021/12/14 08:55:37;;;;;;;17.23;10.20;;;5.40;99.90;4.40;100878;;;;578112;244;24090;-81
2021/12/14 08:58:04;;;;;;;18.43;12.03;;;5.40;99.90;4.50;100871;;;;577748;244;24127;-82
2021/12/14 09:00:32;;;;;;;16.97;10.20;;;5.50;99.90;4.50;100869;;;;577753;244;24123;-81
2021/12/14 09:03:01;;;;;;;20.03;9.23;;;5.50;99.90;4.50;100887;;;;577519;244;24106;-82
2021/12/14 09:05:37;;;;;;;16.67;12.10;;;5.50;99.90;4.60;100877;;;;577675;244;24170;-83
2021/12/14 09:08:05;;;;;;;18.93;10.37;;;5.60;99.90;4.70;100884;;;;577059;244;24111;-83
2021/12/14 09:10:33;;;;;;;15.20;9.57;;;5.60;99.90;4.70;100886;;;;578830;244;24088;-82
2021/12/14 09:13:01;;;;;;;14.73;10.70;;;5.70;99.90;4.70;100880;;;;579012;244;25174;-82
2021/12/14 09:15:38;;;;;;;17.63;10.23;;;5.70;99.90;4.70;100875;;;;578370;244;24090;-82
2021/12/14 09:18:09;;;;;;;16.90;10.40;;;5.70;99.90;4.70;100868;;;;578519;244;24195;-82
2021/12/14 09:20:42;;;;;;;16.03;9.67;;;5.70;99.90;4.70;100863;;;;577677;244;24119;-82
2021/12/14 09:23:10;;;;;;;15.07;9.33;;;5.60;99.90;4.70;100850;;;;585493;244;24077;-83
2021/12/14 09:25:41;;;;;;;15.43;8.97;;;5.60;99.90;4.70;100850;;;;578218;244;24120;-83
2021/12/14 09:28:07;;;;;;;15.40;9.63;;;5.70;99.90;4.80;100850;;;;578316;244;24185;-80
2021/12/14 09:30:35;;;;;;;16.33;10.00;;;5.70;99.90;4.80;100844;;;;578405;244;24089;-81
2021/12/14 09:33:02;;;;;;;15.43;9.23;;;5.70;99.90;4.90;100838;;;;578300;244;24111;-82
2021/12/14 09:35:30;;;;;;;18.77;10.23;;;5.80;99.90;5.00;100845;;;;582081;244;24099;-82
2021/12/14 09:37:58;;;;;;;16.83;9.00;;;5.90;99.90;5.00;100838;;;;571705;248;24146;-82
2021/12/14 09:40:30;;;;;;;14.77;9.43;;;5.90;99.90;5.00;100832;;;;567922;249;24159;-81
2021/12/14 09:43:01;;;;;;;13.23;8.63;;;5.90;99.90;5.00;100832;;;;578367;244;24113;-81
2021/12/14 09:45:25;;;;;;;15.10;8.90;;;6.00;99.90;5.00;100828;;;;567252;249;24214;-84
2021/12/14 09:47:57;;;;;;;12.07;8.23;;;6.00;99.90;5.10;100839;;;;589179;240;24106;-82
2021/12/14 09:50:27;;;;;;;13.90;9.60;;;6.00;99.90;5.10;100829;;;;588940;240;24220;-81
2021/12/14 09:52:52;;;;;;;12.77;8.83;;;6.00;99.90;5.20;100830;;;;589247;240;24075;-82
2021/12/14 09:55:20;;;;;;;14.70;9.10;;;6.10;99.90;5.20;100824;;;;591184;241;24071;-81
2021/12/14 09:57:51;;;;;;;15.37;9.10;;;6.20;99.90;5.30;100832;;;;577659;244;25167;-82
2021/12/14 10:00:21;;;;;;;11.70;8.37;;;6.20;99.90;5.40;100832;;;;566951;249;24159;-82
2021/12/14 10:02:49;;;;;;;12.57;8.80;;;6.30;99.90;5.50;100824;;;;577561;244;24123;-82
2021/12/14 10:05:26;;;;;;;13.93;8.90;;;6.40;99.90;5.50;100833;;;;567514;249;24131;-81
2021/12/14 10:07:55;;;;;;;12.63;8.70;;;6.40;99.90;5.50;100830;;;;566971;249;24119;-81
2021/12/14 10:10:22;;;;;;;15.57;9.37;;;6.50;99.90;5.60;100833;;;;589638;240;24085;-82
2021/12/14 10:12:50;;;;;;;15.30;11.35;;;6.50;99.90;5.60;100831;;;;585968;236;34936;-82
2021/12/14 10:15:21;;;;;;;13.63;9.53;;;6.70;99.90;5.70;100830;;;;585967;241;24046;-82
2021/12/14 10:17:49;;;;;;;14.87;8.37;;;6.60;99.90;5.80;100822;;;;586145;241;24101;-82
2021/12/14 10:20:17;;;;;;;11.57;8.07;;;6.70;99.90;5.80;100816;;;;595203;241;24083;-81
2021/12/14 10:22:45;;;;;;;13.87;8.87;;;6.80;99.90;5.90;100828;;;;587164;241;25288;-81
2021/12/14 10:25:13;;;;;;;12.97;8.87;;;6.90;99.90;5.90;100819;;;;587184;241;24078;-81
2021/12/14 10:27:42;;;;;;;12.50;7.97;;;7.00;99.90;5.90;100816;;;;586817;241;24065;-81
2021/12/14 10:30:10;;;;;;;10.97;6.90;;;6.90;99.90;5.90;100817;;;;595715;241;24207;-82
2021/12/14 10:32:37;;;;;;;12.47;9.30;;;6.90;99.90;5.90;100815;;;;581147;241;35225;-81
2021/12/14 10:35:08;;;;;;;9.40;7.33;;;6.90;99.90;5.90;100816;;;;595543;241;25445;-82
2021/12/14 10:37:52;;;;;;;10.00;7.10;;;6.90;99.90;5.90;100824;;;;585951;241;24203;-81
2021/12/14 10:45:23;;;;;;;9.10;6.70;;;6.80;99.90;5.90;100826;;;;586042;241;24083;-83
2021/12/14 10:47:51;;;;;;;8.40;7.00;;;6.90;99.90;5.80;100821;;;;595551;241;24127;-81
2021/12/14 10:50:19;;;;;;;10.17;7.00;;;6.80;99.90;5.80;100814;;;;595824;241;24156;-82
2021/12/14 10:52:47;;;;;;;11.30;8.67;;;6.80;99.90;5.80;100818;;;;586886;241;24082;-83
2021/12/14 10:55:23;;;;;;;10.47;7.23;;;6.70;99.90;5.80;100808;;;;587005;241;24081;-86
2021/12/14 10:57:50;;;;;;;10.53;7.40;;;6.70;99.90;5.90;100802;;;;585794;241;24289;-85
2021/12/14 11:00:18;;;;;;;12.50;7.57;;;6.80;99.90;5.90;100805;;;;585579;241;24113;-83
2021/12/14 11:02:46;;;;;;;12.00;8.33;;;6.90;99.90;6.00;100800;;;;590807;241;24105;-84
2021/12/14 11:05:19;;;;;;;10.53;7.57;;;7.00;99.90;6.00;100799;;;;595899;241;24106;-85
2021/12/14 11:07:46;;;;;;;12.07;7.40;;;7.00;99.90;6.00;100798;;;;586318;241;24089;-84
2021/12/14 11:10:15;;;;;;;11.20;7.97;;;7.00;99.90;6.00;100775;;;;595259;241;24105;-84
2021/12/14 11:12:43;;;;;;;12.47;7.80;;;6.90;99.90;6.00;100769;;;;586242;241;24068;-85
2021/12/14 11:15:14;;;;;;;12.10;8.70;;;7.00;99.90;6.20;100778;;;;586060;241;24093;-85
2021/12/14 11:20:28;;;;;;;10.77;8.03;;;7.20;99.90;6.60;100784;;;;595454;241;24070;-86
2021/12/14 11:23:23;;;;;;;12.77;8.10;;;7.50;99.90;6.70;100790;;;;583190;240;24081;-75
2021/12/14 11:25:52;;;;;;;13.13;9.00;;;7.70;99.90;6.70;100786;;;;576918;243;24094;-74
2021/12/14 11:28:33;;;;;;;10.80;8.30;;;7.70;99.90;6.70;100795;;;;576057;245;24093;-74
2021/12/14 11:31:03;;;;;;;12.00;8.27;;;7.70;99.90;6.70;100797;;;;579346;244;24074;-76
2021/12/14 11:33:42;;;;;;;14.53;9.80;;;7.60;99.90;6.50;100786;;;;577905;243;24121;-75
2021/12/14 11:36:10;;;;;;;15.17;10.50;;;7.50;99.90;6.30;100785;;;;580881;243;24055;-74
2021/12/14 11:38:40;;;;;;;15.87;10.57;;;7.30;99.90;6.20;100788;;;;577215;243;24048;-75
2021/12/14 11:41:32;;;;;;;15.20;10.27;;;7.20;99.90;6.10;100777;;;;580608;243;24073;-75
2021/12/14 11:44:06;;;;;;;14.67;10.27;;;7.10;99.90;6.00;100778;;;;587408;240;24038;-76
2021/12/14 11:46:34;;;;;;;22.20;12.33;;;6.90;99.90;5.90;100774;;;;599888;239;24027;-76
2021/12/14 11:49:03;;;;;;;19.83;11.77;;;6.80;99.90;5.80;100776;;;;592437;240;24130;-74
2021/12/14 11:51:29;;;;;;;23.23;11.87;;;6.80;99.90;5.80;100787;;;;587281;240;24081;-76
2021/12/14 11:53:57;;;;;;;17.80;12.63;;;6.70;99.90;5.80;100779;;;;587259;240;24069;-75